Time;durP1;ratioP1;P1;durP2;ratioP2;P2;SDS_P1;SDS_P2;PMS_P1;PMS_P2;Temp;Humidity;BMP_temperature;BMP_pressure;BME280_temperature;BME280_humidity;BME280_pressure;Samples;Min_cycle;Max_cycle;Signal;HPM_P1;HPM_P2
2022/11/20 00:00:38;;;;;;;2.70;2.50;;;18.10;66.40;;;;;;4988996;28;21355;-43
2022/11/20 00:03:03;;;;;;;3.50;3.20;;;18.20;66.20;;;;;;4989292;28;20776;-36
2022/11/20 00:05:31;;;;;;;2.97;2.78;;;18.10;66.70;;;;;;4992961;28;20046;-44
2022/11/20 00:07:57;;;;;;;3.40;3.10;;;17.90;67.10;;;;;;5012836;28;20049;-42
2022/11/20 00:10:22;;;;;;;2.95;2.75;;;17.90;67.00;;;;;;5006939;28;20610;-43
2022/11/20 00:12:48;;;;;;;3.00;2.70;;;18.00;66.70;;;;;;5009296;28;20080;-42
2022/11/20 00:15:13;;;;;;;3.83;3.53;;;17.90;66.70;;;;;;5007475;28;20092;-43
2022/11/20 00:17:39;;;;;;;3.10;2.88;;;17.90;66.80;;;;;;5006263;28;20065;-43
2022/11/20 00:20:05;;;;;;;3.13;2.92;;;17.80;66.90;;;;;;5014142;28;20593;-41
2022/11/20 00:22:31;;;;;;;3.42;3.13;;;17.90;67.00;;;;;;5000670;28;20057;-42
2022/11/20 00:24:57;;;;;;;2.90;2.70;;;17.80;68.00;;;;;;4999771;28;20042;-42
2022/11/20 00:27:23;;;;;;;2.95;2.75;;;17.80;67.10;;;;;;5003060;28;20060;-42
2022/11/20 00:29:48;;;;;;;2.83;2.63;;;17.90;66.80;;;;;;5008492;28;20407;-41
2022/11/20 00:32:14;;;;;;;2.78;2.58;;;17.90;67.10;;;;;;5006857;28;20033;-42
2022/11/20 00:34:40;;;;;;;2.85;2.65;;;17.80;67.10;;;;;;5006073;28;20096;-42
2022/11/20 00:37:05;;;;;;;3.03;2.83;;;17.80;66.90;;;;;;5012520;28;20049;-37
2022/11/20 00:39:31;;;;;;;3.00;2.80;;;17.80;67.10;;;;;;5007050;28;20041;-43
2022/11/20 00:41:56;;;;;;;2.35;2.25;;;17.70;67.30;;;;;;4996114;28;20041;-42
2022/11/20 00:44:22;;;;;;;2.33;2.22;;;17.70;67.40;;;;;;4991648;28;20047;-42
2022/11/20 00:46:47;;;;;;;2.70;2.53;;;17.60;67.70;;;;;;4988681;28;20045;-43
2022/11/20 00:49:13;;;;;;;2.78;2.58;;;17.60;67.60;;;;;;4992153;28;20084;-42
2022/11/20 00:51:38;;;;;;;3.20;2.90;;;17.70;67.20;;;;;;4985824;28;20470;-42
2022/11/20 00:54:04;;;;;;;2.35;2.25;;;17.80;67.00;;;;;;4991850;28;20058;-42
2022/11/20 00:56:30;;;;;;;2.45;2.30;;;17.70;67.20;;;;;;5003912;28;20053;-42
2022/11/20 00:58:55;;;;;;;2.45;2.35;;;17.80;66.80;;;;;;4987693;28;20076;-42
2022/11/20 01:01:25;;;;;;;2.60;2.40;;;17.70;67.00;;;;;;4988963;28;20535;-42
2022/11/20 01:03:51;;;;;;;2.42;2.33;;;17.70;67.30;;;;;;4982923;28;20109;-42
2022/11/20 01:06:19;;;;;;;3.30;3.00;;;17.60;67.40;;;;;;5000893;28;20096;-42
2022/11/20 01:08:44;;;;;;;2.53;2.33;;;17.70;67.40;;;;;;5005909;28;20532;-41
2022/11/20 01:11:37;;;;;;;2.38;2.28;;;17.60;67.50;;;;;;5004943;28;20125;-42
2022/11/20 01:14:04;;;;;;;2.15;2.05;;;17.70;67.40;;;;;;5009188;28;20411;-41
2022/11/20 01:16:34;;;;;;;2.20;2.10;;;17.60;67.50;;;;;;5001029;28;20092;-42
2022/11/20 01:19:01;;;;;;;2.67;2.47;;;17.60;67.60;;;;;;5003270;28;20050;-42
2022/11/20 01:21:31;;;;;;;2.25;2.15;;;17.50;67.70;;;;;;5013881;28;20049;-42
2022/11/20 01:23:57;;;;;;;2.20;2.10;;;17.60;67.60;;;;;;5008768;28;20052;-42
2022/11/20 01:26:24;;;;;;;2.60;2.40;;;17.60;67.60;;;;;;4998469;28;20038;-42
2022/11/20 01:28:50;;;;;;;2.13;2.03;;;17.50;67.70;;;;;;4988778;28;20046;-41
2022/11/20 01:31:26;;;;;;;2.55;2.38;;;17.50;67.80;;;;;;4991195;28;20167;-41
2022/11/20 01:33:54;;;;;;;2.53;2.40;;;17.50;67.50;;;;;;4991713;28;20137;-42
2022/11/20 01:36:21;;;;;;;1.88;1.77;;;17.50;67.60;;;;;;4983193;28;20047;-42
2022/11/20 01:38:47;;;;;;;2.30;2.17;;;17.50;68.50;;;;;;4991024;28;20141;-42
2022/11/20 01:43:58;;;;;;;1.80;1.70;;;17.40;67.60;;;;;;4993313;28;20493;-41
2022/11/20 01:46:24;;;;;;;1.80;1.70;;;17.50;67.70;;;;;;4990721;28;20108;-42
2022/11/20 01:49:07;;;;;;;1.90;1.80;;;17.50;67.80;;;;;;4993173;28;20070;-42
2022/11/20 01:51:47;;;;;;;2.03;1.93;;;17.50;67.70;;;;;;4981333;28;20141;-42
2022/11/20 01:54:18;;;;;;;1.67;1.58;;;17.50;68.50;;;;;;4988565;28;20478;-44
2022/11/20 01:56:44;;;;;;;2.05;1.95;;;17.40;67.60;;;;;;5000927;28;20104;-42
2022/11/20 01:59:10;;;;;;;2.13;1.90;;;17.50;67.70;;;;;;5016868;28;20075;-43
2022/11/20 02:01:36;;;;;;;1.77;1.67;;;17.40;67.60;;;;;;5009532;28;20056;-41
2022/11/20 02:04:01;;;;;;;2.55;1.98;;;17.40;67.70;;;;;;5004766;28;20097;-41
2022/11/20 02:06:50;;;;;;;2.33;2.22;;;17.40;67.70;;;;;;4988111;28;20050;-42
2022/11/20 02:09:15;;;;;;;2.03;1.92;;;17.40;67.70;;;;;;4997753;28;20581;-42
2022/11/20 02:11:41;;;;;;;2.08;1.95;;;17.40;67.60;;;;;;5010068;28;20125;-43
2022/11/20 02:14:07;;;;;;;2.00;1.90;;;17.40;67.90;;;;;;5002665;28;20046;-42
2022/11/20 02:16:37;;;;;;;1.90;1.80;;;17.30;67.70;;;;;;4995706;28;20128;-42
2022/11/20 02:19:05;;;;;;;1.75;1.65;;;17.40;67.70;;;;;;5009424;28;20073;-42
2022/11/20 02:21:50;;;;;;;1.80;1.70;;;17.40;67.80;;;;;;4997963;28;20038;-44
2022/11/20 02:24:17;;;;;;;1.88;1.65;;;17.40;67.60;;;;;;5009252;28;20050;-41
2022/11/20 02:26:54;;;;;;;1.70;1.60;;;17.30;67.60;;;;;;5001813;28;20038;-43
2022/11/20 02:29:26;;;;;;;2.13;2.03;;;17.40;67.70;;;;;;4988292;28;20533;-42
2022/11/20 02:31:52;;;;;;;1.70;1.60;;;17.40;67.60;;;;;;5003822;28;20807;-41
2022/11/20 02:34:18;;;;;;;1.90;1.80;;;17.40;67.60;;;;;;5009035;28;20046;-42
2022/11/20 02:36:43;;;;;;;1.50;1.40;;;17.40;67.60;;;;;;5003779;28;20033;-43
2022/11/20 02:39:10;;;;;;;1.60;1.50;;;17.40;67.60;;;;;;5010956;28;20052;-42
2022/11/20 02:41:36;;;;;;;1.65;1.55;;;17.40;67.60;;;;;;5010013;28;20046;-42
2022/11/20 02:44:03;;;;;;;1.70;1.60;;;17.30;67.70;;;;;;5007497;28;20052;-42
2022/11/20 02:46:28;;;;;;;1.15;1.15;;;17.30;67.60;;;;;;5008845;28;20056;-42
2022/11/20 02:48:54;;;;;;;1.50;1.40;;;17.30;67.80;;;;;;5008766;28;20414;-42
2022/11/20 02:51:20;;;;;;;1.52;1.42;;;17.30;67.90;;;;;;5005517;28;20593;-43
2022/11/20 02:53:45;;;;;;;1.60;1.50;;;17.30;67.90;;;;;;5003855;28;20051;-42
2022/11/20 02:56:11;;;;;;;1.77;1.67;;;17.30;67.80;;;;;;5004145;28;20045;-42
2022/11/20 02:58:36;;;;;;;1.77;1.67;;;17.30;67.90;;;;;;5026917;28;20694;-42
2022/11/20 03:01:02;;;;;;;1.55;1.45;;;17.30;67.70;;;;;;4995742;28;20038;-42
2022/11/20 03:03:27;;;;;;;1.20;1.20;;;17.20;67.70;;;;;;4988754;28;20050;-40
2022/11/20 03:05:53;;;;;;;1.20;1.10;;;17.20;67.70;;;;;;4993327;28;20518;-42
2022/11/20 03:08:18;;;;;;;1.67;1.55;;;17.30;67.70;;;;;;4987551;28;20049;-41
2022/11/20 03:10:44;;;;;;;1.55;1.45;;;17.40;68.30;;;;;;5010211;28;20132;-42
2022/11/20 03:13:09;;;;;;;1.13;1.10;;;17.30;67.50;;;;;;5008084;28;20050;-42
2022/11/20 03:15:36;;;;;;;1.80;1.30;;;17.30;67.50;;;;;;4996735;28;20546;-42
2022/11/20 03:18:02;;;;;;;1.88;1.15;;;17.30;67.50;;;;;;4986256;28;20477;-42
2022/11/20 03:20:28;;;;;;;1.55;1.45;;;17.30;67.50;;;;;;4996520;28;20188;-42
2022/11/20 03:22:54;;;;;;;1.27;1.20;;;17.20;67.80;;;;;;4989638;28;20061;-42
2022/11/20 03:25:19;;;;;;;1.63;1.52;;;17.20;67.80;;;;;;4991417;28;20045;-42
2022/11/20 03:27:45;;;;;;;1.50;1.40;;;17.20;68.70;;;;;;5003210;28;20204;-42
2022/11/20 03:30:11;;;;;;;1.05;1.05;;;17.30;67.60;;;;;;4991388;28;20043;-42
2022/11/20 03:32:36;;;;;;;1.20;1.10;;;17.20;67.70;;;;;;4996102;28;20498;-41
2022/11/20 03:35:02;;;;;;;1.27;1.15;;;17.20;67.80;;;;;;5012553;28;20053;-42
2022/11/20 03:37:27;;;;;;;1.17;1.08;;;17.20;67.70;;;;;;5004770;28;21914;-41
2022/11/20 03:39:53;;;;;;;1.10;1.10;;;17.20;67.80;;;;;;5005231;28;20062;-42
2022/11/20 03:45:03;;;;;;;0.93;0.93;;;17.20;67.90;;;;;;4998480;28;20427;-42
2022/11/20 03:47:29;;;;;;;1.67;1.58;;;17.20;67.80;;;;;;5015072;28;20041;-44
2022/11/20 03:49:54;;;;;;;1.17;1.10;;;17.20;67.70;;;;;;5007601;28;20048;-42
2022/11/20 03:52:20;;;;;;;1.10;1.10;;;17.20;67.70;;;;;;5010955;28;20603;-42
2022/11/20 03:54:46;;;;;;;1.20;1.10;;;17.20;67.60;;;;;;5008640;28;20057;-41
2022/11/20 03:57:11;;;;;;;1.20;1.10;;;17.20;67.60;;;;;;5006455;28;20034;-42
2022/11/20 03:59:37;;;;;;;1.05;1.02;;;17.20;67.80;;;;;;4998626;28;20049;-42
2022/11/20 04:02:02;;;;;;;1.45;1.00;;;17.20;67.80;;;;;;5007411;28;20041;-41
2022/11/20 04:04:28;;;;;;;0.90;0.90;;;17.20;67.80;;;;;;5008101;28;20033;-42
2022/11/20 04:06:53;;;;;;;1.15;1.10;;;17.20;67.80;;;;;;5009931;28;20054;-42
2022/11/20 04:09:19;;;;;;;1.00;1.00;;;17.20;67.80;;;;;;5012431;28;20087;-41
2022/11/20 04:11:44;;;;;;;1.70;1.08;;;17.20;67.80;;;;;;5003043;28;20066;-42
2022/11/20 04:14:14;;;;;;;1.02;1.02;;;17.20;67.80;;;;;;5004802;28;20050;-42
2022/11/20 04:16:39;;;;;;;1.30;1.20;;;17.20;68.50;;;;;;5010268;28;20061;-42
2022/11/20 04:19:06;;;;;;;1.08;1.00;;;17.20;67.70;;;;;;5004417;28;20046;-44
2022/11/20 04:21:32;;;;;;;1.00;1.00;;;17.20;67.60;;;;;;4993525;28;20076;-42
2022/11/20 04:23:58;;;;;;;0.75;0.75;;;17.20;67.70;;;;;;4997963;28;20062;-43
2022/11/20 04:26:25;;;;;;;0.90;0.90;;;17.20;67.60;;;;;;5010598;28;20521;-42
2022/11/20 04:28:51;;;;;;;0.82;0.82;;;17.20;67.60;;;;;;4991658;28;20047;-42
2022/11/20 04:31:20;;;;;;;0.90;0.90;;;17.20;67.60;;;;;;4988448;28;20585;-41
2022/11/20 04:33:45;;;;;;;1.17;1.10;;;17.20;67.80;;;;;;4990588;28;20045;-42
2022/11/20 04:36:16;;;;;;;0.85;0.85;;;17.20;67.80;;;;;;4990680;28;20038;-42
2022/11/20 04:38:41;;;;;;;0.80;0.80;;;17.20;67.80;;;;;;4988590;28;20050;-42
2022/11/20 04:41:08;;;;;;;0.57;0.57;;;17.10;67.70;;;;;;4991362;28;20046;-43
2022/11/20 04:43:33;;;;;;;0.75;0.75;;;17.20;67.60;;;;;;4990218;28;20423;-42
2022/11/20 04:45:59;;;;;;;1.00;1.00;;;17.10;68.00;;;;;;4989251;28;20042;-42
2022/11/20 04:48:25;;;;;;;0.82;0.82;;;17.20;67.80;;;;;;5000678;28;20050;-42
2022/11/20 04:50:51;;;;;;;0.73;0.73;;;17.20;67.60;;;;;;4984321;28;20049;-42
2022/11/20 04:53:17;;;;;;;0.90;0.90;;;17.10;67.90;;;;;;4987204;28;20045;-43
2022/11/20 04:55:42;;;;;;;0.90;0.90;;;17.10;68.60;;;;;;4991525;28;20050;-43
2022/11/20 04:58:08;;;;;;;0.80;0.80;;;17.10;68.00;;;;;;4996615;28;20045;-42
2022/11/20 05:00:34;;;;;;;0.70;0.60;;;17.10;67.80;;;;;;5009749;28;20099;-42
2022/11/20 05:02:59;;;;;;;0.82;0.82;;;17.10;67.60;;;;;;4999064;28;20116;-42
2022/11/20 05:05:25;;;;;;;0.80;0.80;;;17.10;68.50;;;;;;5005663;28;20403;-42
2022/11/20 05:07:50;;;;;;;0.98;0.98;;;17.10;67.70;;;;;;5001087;28;20050;-42
2022/11/20 05:10:16;;;;;;;0.57;0.57;;;17.10;67.70;;;;;;5008218;28;20049;-42
2022/11/20 05:12:42;;;;;;;0.80;0.68;;;17.10;67.70;;;;;;5008544;28;20107;-44
2022/11/20 05:15:07;;;;;;;0.75;0.75;;;17.10;67.70;;;;;;4989814;28;20051;-42
2022/11/20 05:17:33;;;;;;;0.60;0.60;;;17.10;67.70;;;;;;4985047;28;20507;-41
2022/11/20 05:19:58;;;;;;;0.68;0.68;;;17.10;67.60;;;;;;4988559;28;20050;-42
2022/11/20 05:22:24;;;;;;;0.47;0.47;;;17.20;67.50;;;;;;4989974;28;20511;-41
2022/11/20 05:24:50;;;;;;;0.70;0.70;;;17.20;67.50;;;;;;4995330;28;20100;-41
2022/11/20 05:27:15;;;;;;;0.70;0.70;;;17.20;67.50;;;;;;4989188;28;20042;-41
2022/11/20 05:29:41;;;;;;;0.68;0.68;;;17.10;67.60;;;;;;4991900;28;20042;-42
2022/11/20 05:32:09;;;;;;;0.60;0.60;;;17.10;67.70;;;;;;4986276;28;20062;-41
2022/11/20 05:34:35;;;;;;;1.00;1.00;;;17.10;68.50;;;;;;4990192;28;20046;-44
2022/11/20 05:37:00;;;;;;;0.68;0.68;;;17.00;67.80;;;;;;4987946;28;20134;-42
2022/11/20 05:39:26;;;;;;;0.73;0.73;;;17.00;67.80;;;;;;5001086;28;20794;-35
2022/11/20 05:42:29;;;;;;;0.60;0.60;;;17.00;67.70;;;;;;5008836;28;20052;-41
2022/11/20 05:44:37;;;;;;;0.68;0.68;;;17.00;67.80;;;;;;5014288;28;20046;-41
2022/11/20 05:47:02;;;;;;;0.77;0.70;;;17.00;67.70;;;;;;5002802;28;20099;-41
2022/11/20 05:49:28;;;;;;;0.73;0.73;;;17.10;67.90;;;;;;5014453;28;20044;-41
2022/11/20 05:51:54;;;;;;;0.70;0.70;;;17.10;67.60;;;;;;5010311;28;20058;-41
2022/11/20 05:54:19;;;;;;;0.70;0.70;;;17.10;67.60;;;;;;5008676;28;20049;-41
2022/11/20 05:56:45;;;;;;;0.82;0.70;;;17.10;67.60;;;;;;5019359;28;20137;-42
2022/11/20 05:59:10;;;;;;;0.85;0.70;;;17.20;67.30;;;;;;5008941;28;20057;-41
2022/11/20 06:01:36;;;;;;;0.70;0.60;;;17.20;67.40;;;;;;5012604;28;20042;-41
2022/11/20 06:04:01;;;;;;;0.70;0.70;;;17.20;67.50;;;;;;5017848;28;20060;-42
2022/11/20 06:06:27;;;;;;;0.93;0.80;;;17.20;67.40;;;;;;5005533;28;20498;-43
2022/11/20 06:08:53;;;;;;;0.60;0.60;;;17.10;67.60;;;;;;5016074;28;20046;-41
2022/11/20 06:11:18;;;;;;;0.50;0.50;;;17.10;67.70;;;;;;5002258;28;20092;-41
2022/11/20 06:13:45;;;;;;;0.65;0.65;;;17.10;67.90;;;;;;5022377;28;20045;-42
2022/11/20 06:16:11;;;;;;;0.50;0.45;;;17.00;68.00;;;;;;5018895;28;20498;-43
2022/11/20 06:18:37;;;;;;;0.70;0.70;;;17.00;67.80;;;;;;4993111;28;20494;-41
2022/11/20 06:21:12;;;;;;;0.40;0.40;;;17.00;68.00;;;;;;4988927;28;20097;-42
2022/11/20 06:23:38;;;;;;;0.50;0.50;;;17.10;68.00;;;;;;4987002;28;20046;-45
2022/11/20 06:26:08;;;;;;;0.60;0.50;;;17.00;68.00;;;;;;4996640;28;20431;-41
2022/11/20 06:28:33;;;;;;;0.50;0.50;;;17.10;67.90;;;;;;5001153;28;20052;-43
2022/11/20 06:30:59;;;;;;;0.60;0.60;;;17.10;68.00;;;;;;4993519;28;20065;-41
2022/11/20 06:33:25;;;;;;;0.68;0.68;;;17.00;68.00;;;;;;4992586;28;20053;-41
2022/11/20 06:35:50;;;;;;;0.52;0.52;;;17.10;67.90;;;;;;4993637;28;20062;-42
2022/11/20 06:38:16;;;;;;;0.50;0.50;;;17.20;67.70;;;;;;4992068;28;20602;-41
2022/11/20 06:40:42;;;;;;;0.77;0.77;;;17.10;67.90;;;;;;4990628;28;20038;-41
2022/11/20 06:43:11;;;;;;;0.60;0.60;;;17.00;67.90;;;;;;4991480;28;20081;-44
2022/11/20 06:45:37;;;;;;;0.77;0.70;;;17.10;67.90;;;;;;4995941;28;20054;-40
2022/11/20 06:48:03;;;;;;;0.68;0.50;;;17.10;67.50;;;;;;4996737;28;20058;-42
2022/11/20 06:50:28;;;;;;;0.50;0.50;;;17.10;67.70;;;;;;4990176;28;20050;-32
2022/11/20 06:52:54;;;;;;;0.40;0.40;;;17.10;67.80;;;;;;4994778;28;20521;-41
2022/11/20 06:55:19;;;;;;;0.47;0.47;;;17.10;67.90;;;;;;4994599;28;20053;-41
2022/11/20 06:57:45;;;;;;;0.40;0.40;;;17.00;67.80;;;;;;4989231;28;20038;-41
2022/11/20 07:00:11;;;;;;;0.68;0.40;;;17.00;67.90;;;;;;4993473;28;20200;-42
2022/11/20 07:02:37;;;;;;;0.50;0.50;;;17.00;68.00;;;;;;5000166;28;20053;-42
2022/11/20 07:05:02;;;;;;;0.50;0.50;;;17.10;67.90;;;;;;5008728;28;20413;-41
2022/11/20 07:07:28;;;;;;;0.38;0.38;;;17.00;67.90;;;;;;5012680;28;20053;-41
2022/11/20 07:09:53;;;;;;;0.55;0.55;;;17.00;67.90;;;;;;5013647;28;20042;-41
2022/11/20 07:12:19;;;;;;;0.30;0.30;;;17.00;68.00;;;;;;5012436;28;20120;-41
2022/11/20 07:14:44;;;;;;;0.40;0.40;;;17.00;67.90;;;;;;5011924;28;20406;-41
2022/11/20 07:17:11;;;;;;;0.50;0.50;;;17.10;67.60;;;;;;5011170;28;20049;-45
2022/11/20 07:19:36;;;;;;;0.40;0.40;;;17.10;67.70;;;;;;5014833;28;20069;-40
2022/11/20 07:22:02;;;;;;;0.45;0.45;;;17.10;67.70;;;;;;5012868;28;20041;-42
2022/11/20 07:24:27;;;;;;;0.47;0.47;;;17.10;67.50;;;;;;5003421;28;20056;-42
2022/11/20 07:26:53;;;;;;;0.38;0.38;;;17.20;67.60;;;;;;5014122;28;20533;-42
2022/11/20 07:29:18;;;;;;;0.50;0.50;;;17.10;67.60;;;;;;4991014;28;20094;-41
2022/11/20 07:31:44;;;;;;;0.55;0.30;;;17.20;67.50;;;;;;4993537;28;20049;-41
2022/11/20 07:34:10;;;;;;;0.60;0.50;;;17.20;67.30;;;;;;4993105;28;20050;-41
2022/11/20 07:36:35;;;;;;;0.50;0.50;;;17.20;67.10;;;;;;4991863;28;20108;-41
2022/11/20 07:39:01;;;;;;;0.38;0.30;;;17.10;68.30;;;;;;4994123;28;20902;-42
2022/11/20 07:41:27;;;;;;;0.43;0.43;;;17.00;67.70;;;;;;4997016;28;20662;-42
2022/11/20 07:43:53;;;;;;;0.40;0.40;;;17.00;68.00;;;;;;5009009;28;20517;-41
2022/11/20 07:46:18;;;;;;;0.45;0.45;;;17.00;68.20;;;;;;5012610;28;20030;-42
2022/11/20 07:48:44;;;;;;;0.70;0.47;;;16.90;68.30;;;;;;4989083;28;20761;-44
2022/11/20 07:51:09;;;;;;;0.40;0.40;;;16.90;68.40;;;;;;4990032;28;20210;-41
2022/11/20 07:53:35;;;;;;;1.00;0.30;;;16.90;69.00;;;;;;4990984;28;20045;-42
2022/11/20 07:56:01;;;;;;;0.40;0.40;;;16.90;68.30;;;;;;4987376;28;20102;-41
2022/11/20 07:58:28;;;;;;;0.40;0.40;;;16.90;68.30;;;;;;4991848;28;20076;-41
2022/11/20 08:00:53;;;;;;;2.05;0.50;;;16.90;68.30;;;;;;4987547;28;20236;-42
2022/11/20 08:03:19;;;;;;;0.40;0.40;;;16.90;68.60;;;;;;4995247;28;20125;-42
2022/11/20 08:05:44;;;;;;;0.30;0.30;;;16.90;69.20;;;;;;5008199;28;20042;-43
2022/11/20 08:08:10;;;;;;;0.40;0.40;;;17.00;69.10;;;;;;5013469;28;20067;-41
2022/11/20 08:10:36;;;;;;;0.60;0.60;;;17.00;70.10;;;;;;5012982;28;20060;-42
2022/11/20 08:15:52;;;;;;;0.40;0.40;;;16.90;71.60;;;;;;5013619;28;20037;-41
2022/11/20 08:18:18;;;;;;;1.60;0.40;;;17.00;70.90;;;;;;5018868;28;20037;-46
2022/11/20 08:20:44;;;;;;;0.40;0.40;;;17.00;70.90;;;;;;5006891;28;20041;-41
2022/11/20 08:23:09;;;;;;;0.40;0.40;;;16.90;70.80;;;;;;5012437;28;20489;-46
2022/11/20 08:25:35;;;;;;;0.30;0.30;;;16.90;70.80;;;;;;5012143;28;20056;-42
2022/11/20 08:28:03;;;;;;;0.50;0.50;;;16.90;70.70;;;;;;5016219;28;20468;-42
2022/11/20 08:30:28;;;;;;;0.50;0.50;;;16.90;70.50;;;;;;5009057;28;20052;-44
2022/11/20 08:32:54;;;;;;;0.75;0.60;;;16.90;70.80;;;;;;5007875;28;20054;-42
2022/11/20 08:35:23;;;;;;;0.40;0.40;;;16.90;70.40;;;;;;5012879;28;20099;-42
2022/11/20 08:37:48;;;;;;;0.50;0.50;;;16.90;70.60;;;;;;5011881;28;20042;-42
2022/11/20 08:40:14;;;;;;;1.20;0.40;;;17.00;70.60;;;;;;5007142;28;20056;-42
2022/11/20 08:42:49;;;;;;;0.45;0.40;;;16.90;70.60;;;;;;5010675;28;20051;-44
2022/11/20 08:45:17;;;;;;;0.40;0.40;;;17.10;70.10;;;;;;5008256;28;20054;-44
2022/11/20 08:47:43;;;;;;;1.20;0.55;;;17.00;70.00;;;;;;5008029;28;20571;-42
2022/11/20 08:50:09;;;;;;;0.60;0.40;;;17.00;70.20;;;;;;4988257;28;20137;-43
2022/11/20 08:52:35;;;;;;;0.43;0.43;;;17.00;71.20;;;;;;4992581;28;20815;-42
2022/11/20 08:55:00;;;;;;;2.92;0.40;;;17.00;71.30;;;;;;4989409;28;20055;-42
2022/11/20 08:57:26;;;;;;;0.40;0.40;;;17.00;70.50;;;;;;4990398;28;20451;-42
2022/11/20 08:59:52;;;;;;;2.08;0.50;;;17.00;70.50;;;;;;4988197;28;20058;-43
2022/11/20 09:02:17;;;;;;;0.88;0.70;;;17.00;70.60;;;;;;4992851;28;20065;-43
2022/11/20 09:04:43;;;;;;;0.40;0.40;;;17.20;70.20;;;;;;4992616;28;20053;-45
2022/11/20 09:07:08;;;;;;;1.55;0.50;;;17.30;69.50;;;;;;4994194;28;20054;-42
2022/11/20 09:09:34;;;;;;;0.47;0.47;;;17.30;70.10;;;;;;4979566;28;20523;-42
2022/11/20 09:11:59;;;;;;;1.67;0.40;;;17.40;69.00;;;;;;4986455;28;20038;-42
2022/11/20 09:14:28;;;;;;;0.40;0.40;;;17.40;69.30;;;;;;4988710;28;20135;-42
2022/11/20 09:16:55;;;;;;;0.55;0.50;;;17.40;69.10;;;;;;4991989;28;20483;-42
2022/11/20 09:19:20;;;;;;;1.35;0.43;;;17.30;69.60;;;;;;4993629;28;20046;-43
2022/11/20 09:21:46;;;;;;;0.30;0.30;;;17.20;70.00;;;;;;4988738;28;20137;-41
2022/11/20 09:24:11;;;;;;;2.25;0.38;;;17.20;70.50;;;;;;4989617;28;20054;-43
2022/11/20 09:26:37;;;;;;;3.35;0.65;;;17.10;70.30;;;;;;4991318;28;20045;-44
2022/11/20 09:29:02;;;;;;;0.57;0.50;;;17.20;70.60;;;;;;4991699;28;20038;-42
2022/11/20 09:31:28;;;;;;;0.50;0.50;;;17.30;70.80;;;;;;4981830;28;20176;-44
2022/11/20 09:33:54;;;;;;;0.40;0.40;;;17.40;70.30;;;;;;4977473;28;20046;-44
2022/11/20 09:36:19;;;;;;;0.43;0.40;;;17.30;70.60;;;;;;4974216;28;20057;-41
2022/11/20 09:38:45;;;;;;;0.65;0.50;;;17.40;70.20;;;;;;4969651;28;20057;-44
2022/11/20 09:41:31;;;;;;;0.60;0.60;;;17.30;70.40;;;;;;4969569;28;20101;-40
2022/11/20 09:43:58;;;;;;;0.65;0.47;;;17.30;71.30;;;;;;4967442;28;20046;-42
2022/11/20 09:46:35;;;;;;;0.45;0.45;;;17.30;71.80;;;;;;4968026;28;20069;-43
2022/11/20 09:49:20;;;;;;;0.73;0.40;;;17.20;71.10;;;;;;4985383;28;20069;-41
2022/11/20 09:51:58;;;;;;;0.93;0.40;;;17.20;70.80;;;;;;4972750;28;20173;-40
2022/11/20 09:54:37;;;;;;;0.70;0.70;;;17.30;70.30;;;;;;4971948;28;20119;-42
2022/11/20 09:57:14;;;;;;;1.80;0.40;;;17.40;70.00;;;;;;4970815;28;20863;-43
2022/11/20 09:59:46;;;;;;;0.50;0.50;;;17.60;69.70;;;;;;4967943;28;20130;-42
2022/11/20 10:02:25;;;;;;;0.47;0.40;;;17.80;69.00;;;;;;5010785;28;20060;-43
2022/11/20 10:05:14;;;;;;;0.43;0.40;;;17.80;68.40;;;;;;4987864;28;20525;-42
2022/11/20 10:08:14;;;;;;;1.52;0.50;;;17.70;68.80;;;;;;4964533;28;20050;-42
2022/11/20 10:10:42;;;;;;;0.55;0.47;;;17.70;69.00;;;;;;4953693;28;20082;-42
2022/11/20 10:13:16;;;;;;;0.90;0.32;;;17.60;69.50;;;;;;4955275;28;20054;-41
2022/11/20 10:16:23;;;;;;;0.43;0.43;;;17.50;69.70;;;;;;4961058;28;20046;-39
2022/11/20 10:18:55;;;;;;;0.40;0.30;;;17.60;69.60;;;;;;4911311;29;20063;-44
2022/11/20 10:21:23;;;;;;;0.68;0.50;;;17.50;69.80;;;;;;4898041;29;20772;-46
2022/11/20 10:24:16;;;;;;;1.00;0.40;;;17.50;69.70;;;;;;4909563;29;20147;-41
2022/11/20 10:27:18;;;;;;;0.65;0.45;;;17.40;69.80;;;;;;4912112;29;20667;-42
2022/11/20 10:29:46;;;;;;;0.63;0.30;;;17.60;69.70;;;;;;4901756;29;20060;-42
2022/11/20 10:32:18;;;;;;;0.70;0.40;;;17.60;69.60;;;;;;4881037;29;20801;-42
2022/11/20 10:34:58;;;;;;;0.57;0.38;;;17.60;69.50;;;;;;4894939;29;20087;-42
2022/11/20 10:37:27;;;;;;;0.20;0.20;;;17.50;69.70;;;;;;4908838;29;20048;-47
2022/11/20 10:40:01;;;;;;;0.98;0.50;;;17.50;69.90;;;;;;4899163;29;20090;-42
2022/11/20 10:42:43;;;;;;;1.03;0.40;;;17.50;69.90;;;;;;4908899;29;20048;-42
2022/11/20 10:45:24;;;;;;;1.35;0.40;;;17.40;70.20;;;;;;4927916;28;20063;-43
2022/11/20 10:47:50;;;;;;;0.60;0.32;;;17.50;70.20;;;;;;4936499;28;20049;-40
2022/11/20 10:50:19;;;;;;;0.45;0.30;;;17.50;70.60;;;;;;4939551;28;20074;-45
2022/11/20 10:53:23;;;;;;;0.60;0.40;;;17.50;70.30;;;;;;4921624;28;20047;-43
2022/11/20 10:56:03;;;;;;;0.45;0.45;;;17.50;70.60;;;;;;4958146;28;20038;-40
2022/11/20 10:58:44;;;;;;;1.27;0.75;;;17.50;71.30;;;;;;4972262;28;20042;-44
2022/11/20 11:01:17;;;;;;;0.73;0.43;;;17.40;71.60;;;;;;4971597;28;20081;-43
2022/11/20 11:03:46;;;;;;;0.40;0.40;;;17.50;71.30;;;;;;4974642;28;20054;-42
2022/11/20 11:06:23;;;;;;;0.93;0.70;;;17.60;70.10;;;;;;5002350;28;20061;-42
2022/11/20 11:08:49;;;;;;;0.65;0.45;;;17.60;70.60;;;;;;4989327;28;20084;-47
2022/11/20 11:11:22;;;;;;;1.15;0.50;;;17.60;70.60;;;;;;5003524;28;20522;-43
2022/11/20 11:13:47;;;;;;;0.77;0.43;;;17.90;69.10;;;;;;4987646;28;20618;-44
2022/11/20 11:16:31;;;;;;;0.32;0.32;;;17.80;69.60;;;;;;4990669;28;20061;-42
2022/11/20 11:19:13;;;;;;;0.45;0.45;;;17.70;70.60;;;;;;4987329;28;20159;-41
2022/11/20 11:21:43;;;;;;;0.98;0.60;;;17.80;71.00;;;;;;4988095;28;20042;-41
2022/11/20 11:24:19;;;;;;;1.45;0.60;;;17.90;70.00;;;;;;4985955;28;20057;-41
2022/11/20 11:26:52;;;;;;;1.23;0.55;;;17.70;70.70;;;;;;4989180;28;20111;-20
2022/11/20 11:29:17;;;;;;;0.75;0.73;;;17.90;70.20;;;;;;4989804;28;20042;-42
2022/11/20 11:31:43;;;;;;;4.85;0.40;;;18.00;71.30;;;;;;4988809;28;20049;-42
2022/11/20 11:34:12;;;;;;;4.43;0.50;;;17.90;71.60;;;;;;4991297;28;20565;-41
2022/11/20 11:36:38;;;;;;;1.33;0.50;;;17.80;71.90;;;;;;4989183;28;20046;-42
2022/11/20 11:39:04;;;;;;;0.68;0.50;;;17.80;72.40;;;;;;4986932;28;20071;-44
2022/11/20 11:41:34;;;;;;;0.40;0.38;;;17.70;72.80;;;;;;5003902;28;20134;-44
2022/11/20 11:46:59;;;;;;;0.75;0.55;;;17.70;73.00;;;;;;4989577;28;20141;-39
2022/11/20 11:49:25;;;;;;;2.30;0.55;;;17.70;72.30;;;;;;4987766;28;20061;-42
2022/11/20 11:52:25;;;;;;;2.88;1.20;;;17.90;71.80;;;;;;4988094;28;20627;-44
2022/11/20 11:54:55;;;;;;;1.08;0.73;;;17.90;71.40;;;;;;4985725;28;20062;-42
2022/11/20 11:57:26;;;;;;;1.52;0.80;;;17.90;71.40;;;;;;5003859;28;20568;-44
2022/11/20 12:00:02;;;;;;;2.05;1.10;;;17.90;71.00;;;;;;4990973;28;20141;-36
2022/11/20 12:02:49;;;;;;;1.55;0.90;;;18.00;70.40;;;;;;4988951;28;20038;-44
2022/11/20 12:05:17;;;;;;;1.90;0.70;;;18.10;70.80;;;;;;4988364;28;20073;-43
2022/11/20 12:08:05;;;;;;;2.01;1.01;;;18.10;70.10;;;;;;4922967;28;10001334;-42
2022/11/20 12:10:42;;;;;;;1.92;0.77;;;18.10;69.60;;;;;;4998585;28;21181;-42
2022/11/20 12:13:34;;;;;;;1.48;0.85;;;18.40;68.90;;;;;;5023189;28;20148;-42
2022/11/20 12:16:03;;;;;;;2.47;0.98;;;18.30;69.00;;;;;;4956576;28;20046;-43
2022/11/20 12:18:28;;;;;;;1.50;0.90;;;18.50;69.10;;;;;;4968901;28;20145;-40
2022/11/20 12:21:12;;;;;;;2.45;0.85;;;18.50;68.90;;;;;;4968198;28;20046;-44
2022/11/20 12:23:46;;;;;;;2.75;1.42;;;18.60;69.10;;;;;;4966166;28;20164;-45
2022/11/20 12:26:38;;;;;;;2.92;1.00;;;18.60;69.10;;;;;;5000772;28;20054;-43
2022/11/20 12:29:25;;;;;;;2.42;1.02;;;18.60;69.20;;;;;;4967759;28;20081;-43
2022/11/20 12:31:54;;;;;;;2.47;1.33;;;18.60;69.10;;;;;;4988518;28;20069;-43
2022/11/20 12:34:32;;;;;;;2.50;1.50;;;18.70;69.50;;;;;;4638429;28;10000335;-42
2022/11/20 12:37:17;;;;;;;1.60;1.40;;;18.60;69.30;;;;;;4975967;28;20301;-43
2022/11/20 12:39:42;;;;;;;3.38;1.60;;;18.60;69.10;;;;;;4982404;28;20053;-39
2022/11/20 12:45:35;;;;;;;1.80;1.35;;;18.50;69.50;;;;;;4981939;28;20062;-20
2022/11/20 12:48:31;;;;;;;2.50;1.80;;;18.50;69.60;;;;;;4966015;28;20126;-21
2022/11/20 12:51:16;;;;;;;2.92;1.42;;;18.40;70.90;;;;;;4966556;28;20056;-20
2022/11/20 12:54:00;;;;;;;;;;;18.40;70.20;;;;;;4969105;28;20727;-21
2022/11/20 12:56:54;;;;;;;1.70;1.60;;;18.50;69.80;;;;;;4967544;28;19948;-21
2022/11/20 12:59:51;;;;;;;5.15;1.33;;;18.40;70.00;;;;;;4969467;28;20054;-21
2022/11/20 13:02:35;;;;;;;2.03;1.40;;;18.40;70.10;;;;;;4979209;28;20042;-20
2022/11/20 13:05:04;;;;;;;1.85;1.10;;;18.40;70.00;;;;;;4969510;28;20069;-21
2022/11/20 13:07:30;;;;;;;1.83;1.30;;;18.50;69.50;;;;;;4984685;28;20050;-20
2022/11/20 13:09:55;;;;;;;2.20;1.35;;;18.40;69.60;;;;;;4983988;28;20078;-20
2022/11/20 13:12:34;;;;;;;2.30;1.38;;;18.50;69.50;;;;;;4982967;28;20050;-21